Anchorage/Merrill Field, Alaska
Current Conditions -  °F | °C
As of 12:53 AM on Saturday 25 Oct 2014 (Local Time) from PAMR Reporting Station
Light Snow Light Snow  
Wind Chill: 33°   Ceiling: 4300
Heat Index: 33°   Visibility: 10mi
Dew Point: 28°   Wind: 0mph
Humidity: 82%   Direction: NA
Pressure: 29.91"   Gusts: NA
Location:  61.21°N, 149.85°W
Report Text: PAMR 250853Z 00000KT 10SM -SN SCT033 OVC043 01/M02 A2991 RMK AO2 SLP129 P0000 60000 T00061022 400281044 51005
Loading
Personal Weather Stations






























Interactive Weather Map
Tropical Storm Tracking
New forecast layout! Learn more

10-Day Weather Forecast

Advertisements
Track Severe Weather on mobile